sensor_id;sensor_type;location;lat;lon;timestamp;pressure;altitude;pressure_sealevel;temperature;humidity
50282;BME280;36176;51.506;10.272;2023-02-02T00:02:06;99468.22;;;3.42;81.30
50282;BME280;36176;51.506;10.272;2023-02-02T00:04:35;99465.56;;;3.45;80.39
50282;BME280;36176;51.506;10.272;2023-02-02T00:07:02;99470.72;;;3.48;80.45
50282;BME280;36176;51.506;10.272;2023-02-02T00:09:31;99466.34;;;3.50;80.93
50282;BME280;36176;51.506;10.272;2023-02-02T00:11:59;99473.38;;;3.47;80.82
50282;BME280;36176;51.506;10.272;2023-02-02T00:14:27;99468.09;;;3.50;81.17
50282;BME280;36176;51.506;10.272;2023-02-02T00:16:55;99473.22;;;3.54;80.57
50282;BME280;36176;51.506;10.272;2023-02-02T00:19:25;99474.03;;;3.58;80.48
50282;BME280;36176;51.506;10.272;2023-02-02T00:21:53;99479.22;;;3.61;80.92
50282;BME280;36176;51.506;10.272;2023-02-02T00:24:21;99472.19;;;3.63;80.16
50282;BME280;36176;51.506;10.272;2023-02-02T00:26:51;99475.66;;;3.65;80.78
50282;BME280;36176;51.506;10.272;2023-02-02T00:29:27;99483.41;;;3.71;80.09
50282;BME280;36176;51.506;10.272;2023-02-02T00:31:54;99482.50;;;3.72;80.14
50282;BME280;36176;51.506;10.272;2023-02-02T00:34:22;99477.19;;;3.77;79.63
50282;BME280;36176;51.506;10.272;2023-02-02T00:36:49;99480.59;;;3.80;78.82
50282;BME280;36176;51.506;10.272;2023-02-02T00:39:19;99490.16;;;3.83;79.34
50282;BME280;36176;51.506;10.272;2023-02-02T00:41:47;99478.88;;;3.78;79.02
50282;BME280;36176;51.506;10.272;2023-02-02T00:44:14;99491.97;;;3.79;79.18
50282;BME280;36176;51.506;10.272;2023-02-02T00:46:59;99491.22;;;3.73;79.27
50282;BME280;36176;51.506;10.272;2023-02-02T00:49:26;99489.66;;;3.64;79.70
50282;BME280;36176;51.506;10.272;2023-02-02T00:51:53;99493.28;;;3.57;79.44
50282;BME280;36176;51.506;10.272;2023-02-02T00:54:20;99491.59;;;3.53;79.60
50282;BME280;36176;51.506;10.272;2023-02-02T00:56:47;99489.94;;;3.49;79.54
50282;BME280;36176;51.506;10.272;2023-02-02T00:59:14;99502.03;;;3.54;79.45
50282;BME280;36176;51.506;10.272;2023-02-02T01:01:41;99495.94;;;3.55;79.68
50282;BME280;36176;51.506;10.272;2023-02-02T01:04:08;99501.22;;;3.52;80.21
50282;BME280;36176;51.506;10.272;2023-02-02T01:06:35;99500.47;;;3.46;79.60
50282;BME280;36176;51.506;10.272;2023-02-02T01:09:02;99497.94;;;3.41;80.02
50282;BME280;36176;51.506;10.272;2023-02-02T01:11:29;99506.72;;;3.37;80.32
50282;BME280;36176;51.506;10.272;2023-02-02T01:13:59;99505.03;;;3.34;79.74
50282;BME280;36176;51.506;10.272;2023-02-02T01:16:26;99505.88;;;3.36;80.03
50282;BME280;36176;51.506;10.272;2023-02-02T01:18:53;99501.53;;;3.35;79.99
50282;BME280;36176;51.506;10.272;2023-02-02T01:21:20;99508.56;;;3.30;80.62
50282;BME280;36176;51.506;10.272;2023-02-02T01:23:47;99518.22;;;3.28;80.16
50282;BME280;36176;51.506;10.272;2023-02-02T01:26:15;99512.03;;;3.34;80.36
50282;BME280;36176;51.506;10.272;2023-02-02T01:28:43;99510.25;;;3.34;80.30
50282;BME280;36176;51.506;10.272;2023-02-02T01:31:12;99511.88;;;3.41;80.06
50282;BME280;36176;51.506;10.272;2023-02-02T01:33:41;99515.34;;;3.44;79.96
50282;BME280;36176;51.506;10.272;2023-02-02T01:36:20;99515.25;;;3.50;79.98
50282;BME280;36176;51.506;10.272;2023-02-02T01:38:48;99505.56;;;3.52;79.60
50282;BME280;36176;51.506;10.272;2023-02-02T01:41:21;99516.03;;;3.55;79.84
50282;BME280;36176;51.506;10.272;2023-02-02T01:43:52;99516.94;;;3.52;80.04
50282;BME280;36176;51.506;10.272;2023-02-02T01:46:29;99519.50;;;3.55;79.40
50282;BME280;36176;51.506;10.272;2023-02-02T01:49:17;99522.91;;;3.59;79.20
50282;BME280;36176;51.506;10.272;2023-02-02T01:51:52;99527.19;;;3.65;79.01
50282;BME280;36176;51.506;10.272;2023-02-02T01:54:23;99533.22;;;3.70;78.71
50282;BME280;36176;51.506;10.272;2023-02-02T01:56:58;99524.44;;;3.72;78.71
50282;BME280;36176;51.506;10.272;2023-02-02T01:59:27;99530.50;;;3.74;78.53
50282;BME280;36176;51.506;10.272;2023-02-02T02:01:56;99534.81;;;3.78;78.34
50282;BME280;36176;51.506;10.272;2023-02-02T02:04:24;99537.38;;;3.81;77.84
50282;BME280;36176;51.506;10.272;2023-02-02T02:06:53;99536.47;;;3.82;78.43
50282;BME280;36176;51.506;10.272;2023-02-02T02:09:20;99543.38;;;3.87;78.52
50282;BME280;36176;51.506;10.272;2023-02-02T02:11:47;99543.41;;;3.85;78.31
50282;BME280;36176;51.506;10.272;2023-02-02T02:14:15;99539.88;;;3.88;78.33
50282;BME280;36176;51.506;10.272;2023-02-02T02:17:15;99542.47;;;3.89;78.09
50282;BME280;36176;51.506;10.272;2023-02-02T02:37:22;99555.50;;;3.92;76.58
50282;BME280;36176;51.506;10.272;2023-02-02T02:40:00;99552.88;;;3.94;75.62
50282;BME280;36176;51.506;10.272;2023-02-02T02:42:33;99551.94;;;3.98;75.29
50282;BME280;36176;51.506;10.272;2023-02-02T02:45:03;99554.53;;;3.98;74.87
50282;BME280;36176;51.506;10.272;2023-02-02T02:47:32;99551.09;;;3.94;74.63
50282;BME280;36176;51.506;10.272;2023-02-02T02:50:00;99559.88;;;3.92;75.25
50282;BME280;36176;51.506;10.272;2023-02-02T02:52:27;99557.28;;;3.92;75.44
50282;BME280;36176;51.506;10.272;2023-02-02T02:54:55;99565.16;;;3.90;75.10
50282;BME280;36176;51.506;10.272;2023-02-02T03:08:41;99552.03;;;3.90;73.92
50282;BME280;36176;51.506;10.272;2023-02-02T03:11:11;99562.50;;;3.92;74.09
50282;BME280;36176;51.506;10.272;2023-02-02T03:13:40;99562.50;;;3.92;74.75
50282;BME280;36176;51.506;10.272;2023-02-02T03:16:08;99557.34;;;3.89;74.75
50282;BME280;36176;51.506;10.272;2023-02-02T03:18:35;99564.25;;;3.93;74.71
50282;BME280;36176;51.506;10.272;2023-02-02T03:21:02;99567.75;;;3.92;74.65
50282;BME280;36176;51.506;10.272;2023-02-02T03:23:29;99577.38;;;3.93;74.78
50282;BME280;36176;51.506;10.272;2023-02-02T03:25:57;99578.16;;;3.95;74.86
50282;BME280;36176;51.506;10.272;2023-02-02T03:28:26;99569.44;;;3.96;74.71
50282;BME280;36176;51.506;10.272;2023-02-02T03:30:54;99569.44;;;3.96;75.50
50282;BME280;36176;51.506;10.272;2023-02-02T03:33:23;99578.13;;;3.98;75.50
50282;BME280;36176;51.506;10.272;2023-02-02T03:35:50;99578.97;;;4.00;75.51
50282;BME280;36176;51.506;10.272;2023-02-02T03:38:17;99589.41;;;4.01;75.72
50282;BME280;36176;51.506;10.272;2023-02-02T03:40:44;99583.31;;;4.02;75.72
50282;BME280;36176;51.506;10.272;2023-02-02T03:43:11;99583.38;;;3.98;75.79
50282;BME280;36176;51.506;10.272;2023-02-02T03:45:38;99592.97;;;3.97;76.06
50282;BME280;36176;51.506;10.272;2023-02-02T03:48:06;99594.81;;;3.94;76.81
50282;BME280;36176;51.506;10.272;2023-02-02T03:50:33;99591.44;;;3.87;76.48
50282;BME280;36176;51.506;10.272;2023-02-02T03:53:00;99599.34;;;3.84;76.52
50282;BME280;36176;51.506;10.272;2023-02-02T03:55:27;99603.75;;;3.82;76.50
50282;BME280;36176;51.506;10.272;2023-02-02T03:57:54;99609.91;;;3.81;76.77
50282;BME280;36176;51.506;10.272;2023-02-02T04:00:22;99609.84;;;3.82;76.52
50282;BME280;36176;51.506;10.272;2023-02-02T04:02:49;99604.75;;;3.76;77.10
50282;BME280;36176;51.506;10.272;2023-02-02T04:05:16;99595.22;;;3.71;77.06
50282;BME280;36176;51.506;10.272;2023-02-02T04:07:43;99604.00;;;3.68;77.20
50282;BME280;36176;51.506;10.272;2023-02-02T04:10:11;99606.72;;;3.62;77.78
50282;BME280;36176;51.506;10.272;2023-02-02T04:12:38;99603.25;;;3.60;77.98
50282;BME280;36176;51.506;10.272;2023-02-02T04:15:05;99600.72;;;3.57;78.10
50282;BME280;36176;51.506;10.272;2023-02-02T04:17:33;99603.31;;;3.57;78.56
50282;BME280;36176;51.506;10.272;2023-02-02T04:20:02;99614.72;;;3.53;78.86
50282;BME280;36176;51.506;10.272;2023-02-02T04:22:29;99607.72;;;3.53;78.70
50282;BME280;36176;51.506;10.272;2023-02-02T04:24:56;99622.69;;;3.47;79.22
50282;BME280;36176;51.506;10.272;2023-02-02T04:27:23;99607.03;;;3.42;79.72
50282;BME280;36176;51.506;10.272;2023-02-02T04:29:50;99617.50;;;3.42;80.08
50282;BME280;36176;51.506;10.272;2023-02-02T04:32:17;99613.97;;;3.45;80.55
50282;BME280;36176;51.506;10.272;2023-02-02T04:34:44;99622.75;;;3.44;81.05
50282;BME280;36176;51.506;10.272;2023-02-02T04:37:11;99617.50;;;3.44;81.36
50282;BME280;36176;51.506;10.272;2023-02-02T04:39:38;99625.34;;;3.44;81.16
50282;BME280;36176;51.506;10.272;2023-02-02T04:42:05;99628.84;;;3.44;81.46
50282;BME280;36176;51.506;10.272;2023-02-02T04:44:32;99621.81;;;3.46;82.08
50282;BME280;36176;51.506;10.272;2023-02-02T04:46:59;99623.47;;;3.52;81.85
50282;BME280;36176;51.506;10.272;2023-02-02T04:49:26;99623.38;;;3.59;81.70
50282;BME280;36176;51.506;10.272;2023-02-02T04:51:53;99618.84;;;3.68;81.50
50282;BME280;36176;51.506;10.272;2023-02-02T04:54:20;99624.03;;;3.72;81.72
50282;BME280;36176;51.506;10.272;2023-02-02T04:56:47;99630.97;;;3.75;81.73
50282;BME280;36176;51.506;10.272;2023-02-02T04:59:14;99629.25;;;3.72;82.19
50282;BME280;36176;51.506;10.272;2023-02-02T05:01:41;99624.81;;;3.76;82.52
50282;BME280;36176;51.506;10.272;2023-02-02T05:04:10;99630.88;;;3.79;81.88
50282;BME280;36176;51.506;10.272;2023-02-02T05:06:37;99636.06;;;3.82;82.42
50282;BME280;36176;51.506;10.272;2023-02-02T05:09:04;99633.44;;;3.82;82.34
50282;BME280;36176;51.506;10.272;2023-02-02T05:11:30;99637.81;;;3.83;82.59
50282;BME280;36176;51.506;10.272;2023-02-02T05:13:57;99636.00;;;3.87;82.38
50282;BME280;36176;51.506;10.272;2023-02-02T05:16:24;99638.59;;;3.89;82.09
50282;BME280;36176;51.506;10.272;2023-02-02T05:18:55;99643.00;;;3.87;82.72
50282;BME280;36176;51.506;10.272;2023-02-02T05:21:22;99641.22;;;3.89;82.34
50282;BME280;36176;51.506;10.272;2023-02-02T05:23:49;99640.38;;;3.85;82.60
50282;BME280;36176;51.506;10.272;2023-02-02T05:26:21;99640.44;;;3.83;82.74
50282;BME280;36176;51.506;10.272;2023-02-02T05:28:48;99644.00;;;3.78;82.83
50282;BME280;36176;51.506;10.272;2023-02-02T05:31:15;99644.94;;;3.75;83.40
50282;BME280;36176;51.506;10.272;2023-02-02T05:33:42;99648.31;;;3.80;83.66
50282;BME280;36176;51.506;10.272;2023-02-02T05:36:10;99651.78;;;3.84;83.31
50282;BME280;36176;51.506;10.272;2023-02-02T05:38:37;99653.50;;;3.85;83.10
50282;BME280;36176;51.506;10.272;2023-02-02T05:41:04;99659.69;;;3.81;83.59
50282;BME280;36176;51.506;10.272;2023-02-02T05:43:32;99653.56;;;3.82;83.42
50282;BME280;36176;51.506;10.272;2023-02-02T05:45:59;99660.44;;;3.88;83.53
50282;BME280;36176;51.506;10.272;2023-02-02T05:48:26;99650.88;;;3.85;82.89
50282;BME280;36176;51.506;10.272;2023-02-02T05:50:58;99645.63;;;3.87;83.10
50282;BME280;36176;51.506;10.272;2023-02-02T05:53:28;99657.88;;;3.84;83.44
50282;BME280;36176;51.506;10.272;2023-02-02T05:55:55;99657.88;;;3.84;83.42
50282;BME280;36176;51.506;10.272;2023-02-02T05:58:22;99658.72;;;3.87;83.43
50282;BME280;36176;51.506;10.272;2023-02-02T06:00:51;99663.94;;;3.88;83.38
50282;BME280;36176;51.506;10.272;2023-02-02T06:03:21;99673.47;;;3.94;83.31
50282;BME280;36176;51.506;10.272;2023-02-02T06:05:48;99669.00;;;3.97;82.71
50282;BME280;36176;51.506;10.272;2023-02-02T06:08:15;99671.56;;;4.02;83.14
50282;BME280;36176;51.506;10.272;2023-02-02T06:10:42;99668.91;;;4.05;82.60
50282;BME280;36176;51.506;10.272;2023-02-02T06:13:10;99666.28;;;4.03;82.38
50282;BME280;36176;51.506;10.272;2023-02-02T06:15:37;99677.66;;;4.04;82.75
50282;BME280;36176;51.506;10.272;2023-02-02T06:18:04;99672.38;;;4.05;82.77
50282;BME280;36176;51.506;10.272;2023-02-02T06:20:34;99672.38;;;4.05;82.73
50282;BME280;36176;51.506;10.272;2023-02-02T06:23:01;99670.63;;;4.04;82.63
50282;BME280;36176;51.506;10.272;2023-02-02T06:25:29;99669.78;;;4.04;82.04
50282;BME280;36176;51.506;10.272;2023-02-02T06:27:57;99667.94;;;4.09;82.32
50282;BME280;36176;51.506;10.272;2023-02-02T06:30:25;99676.66;;;4.11;81.99
50282;BME280;36176;51.506;10.272;2023-02-02T06:32:52;99672.31;;;4.10;82.42
50282;BME280;36176;51.506;10.272;2023-02-02T06:35:19;99675.78;;;4.11;81.87
50282;BME280;36176;51.506;10.272;2023-02-02T06:37:46;99683.56;;;4.15;82.55
50282;BME280;36176;51.506;10.272;2023-02-02T06:40:14;99674.00;;;4.14;82.31
50282;BME280;36176;51.506;10.272;2023-02-02T06:42:40;99678.41;;;4.11;82.74
50282;BME280;36176;51.506;10.272;2023-02-02T06:45:08;99683.63;;;4.12;82.26
50282;BME280;36176;51.506;10.272;2023-02-02T06:47:35;99680.09;;;4.13;82.40
50282;BME280;36176;51.506;10.272;2023-02-02T06:50:03;99684.56;;;4.10;82.38
50282;BME280;36176;51.506;10.272;2023-02-02T06:52:30;99683.66;;;4.09;82.68
50282;BME280;36176;51.506;10.272;2023-02-02T06:54:57;99677.50;;;4.13;82.48
50282;BME280;36176;51.506;10.272;2023-02-02T06:57:24;99686.19;;;4.15;82.27
50282;BME280;36176;51.506;10.272;2023-02-02T06:59:50;99679.16;;;4.17;82.20
50282;BME280;36176;51.506;10.272;2023-02-02T07:02:18;99680.09;;;4.15;82.75
50282;BME280;36176;51.506;10.272;2023-02-02T07:04:45;99680.88;;;4.18;82.61
50282;BME280;36176;51.506;10.272;2023-02-02T07:07:12;99682.56;;;4.22;82.41
50282;BME280;36176;51.506;10.272;2023-02-02T07:09:38;99683.44;;;4.23;82.49
50282;BME280;36176;51.506;10.272;2023-02-02T07:12:06;99679.09;;;4.20;81.74
50282;BME280;36176;51.506;10.272;2023-02-02T07:14:33;99679.03;;;4.23;81.43
50282;BME280;36176;51.506;10.272;2023-02-02T07:16:59;99684.34;;;4.20;81.12
50282;BME280;36176;51.506;10.272;2023-02-02T07:19:26;99682.63;;;4.19;81.02
50282;BME280;36176;51.506;10.272;2023-02-02T07:21:53;99701.84;;;4.20;80.39
50282;BME280;36176;51.506;10.272;2023-02-02T07:24:21;99698.41;;;4.16;79.68
50282;BME280;36176;51.506;10.272;2023-02-02T07:26:47;99695.78;;;4.16;78.63
50282;BME280;36176;51.506;10.272;2023-02-02T07:29:15;99706.31;;;4.15;77.11
50282;BME280;36176;51.506;10.272;2023-02-02T07:31:42;99702.84;;;4.13;76.72
50282;BME280;36176;51.506;10.272;2023-02-02T07:34:09;99705.56;;;4.07;75.53
50282;BME280;36176;51.506;10.272;2023-02-02T07:36:36;99723.84;;;4.11;75.98
50282;BME280;36176;51.506;10.272;2023-02-02T07:39:04;99722.19;;;4.07;76.31
50282;BME280;36176;51.506;10.272;2023-02-02T07:41:33;99722.22;;;4.04;75.28
50282;BME280;36176;51.506;10.272;2023-02-02T07:44:01;99731.00;;;4.01;76.43
50282;BME280;36176;51.506;10.272;2023-02-02T07:46:28;99742.47;;;3.96;76.03
50282;BME280;36176;51.506;10.272;2023-02-02T07:48:56;99747.72;;;3.96;76.46
50282;BME280;36176;51.506;10.272;2023-02-02T07:51:24;99749.63;;;3.84;77.54
50282;BME280;36176;51.506;10.272;2023-02-02T07:53:52;99746.22;;;3.79;77.78
50282;BME280;36176;51.506;10.272;2023-02-02T07:56:22;99752.31;;;3.80;79.23
50282;BME280;36176;51.506;10.272;2023-02-02T07:58:54;99751.59;;;3.70;80.49
50282;BME280;36176;51.506;10.272;2023-02-02T08:01:21;99742.09;;;3.63;80.92
50282;BME280;36176;51.506;10.272;2023-02-02T08:03:49;99755.28;;;3.55;81.22
50282;BME280;36176;51.506;10.272;2023-02-02T08:06:19;99756.28;;;3.48;82.41
50282;BME280;36176;51.506;10.272;2023-02-02T08:08:47;99767.59;;;3.49;81.89
50282;BME280;36176;51.506;10.272;2023-02-02T08:11:17;99779.84;;;3.50;81.07
50282;BME280;36176;51.506;10.272;2023-02-02T08:13:48;99773.69;;;3.51;80.80
50282;BME280;36176;51.506;10.272;2023-02-02T08:16:17;99781.56;;;3.51;80.74
50282;BME280;36176;51.506;10.272;2023-02-02T08:18:44;99780.75;;;3.47;80.38
50282;BME280;36176;51.506;10.272;2023-02-02T08:21:12;99790.28;;;3.53;80.35
50282;BME280;36176;51.506;10.272;2023-02-02T08:23:39;99796.31;;;3.59;80.03
50282;BME280;36176;51.506;10.272;2023-02-02T08:26:27;99800.56;;;3.67;79.64
50282;BME280;36176;51.506;10.272;2023-02-02T08:28:57;99797.06;;;3.66;79.44
50282;BME280;36176;51.506;10.272;2023-02-02T08:31:27;99807.53;;;3.69;79.46
50282;BME280;36176;51.506;10.272;2023-02-02T08:33:55;99799.69;;;3.66;80.25
50282;BME280;36176;51.506;10.272;2023-02-02T08:36:25;99806.84;;;3.55;81.80
50282;BME280;36176;51.506;10.272;2023-02-02T08:38:52;99811.22;;;3.53;82.01
50282;BME280;36176;51.506;10.272;2023-02-02T08:41:21;99814.75;;;3.49;83.30
50282;BME280;36176;51.506;10.272;2023-02-02T08:43:49;99819.19;;;3.44;84.17
50282;BME280;36176;51.506;10.272;2023-02-02T08:46:17;99825.34;;;3.39;85.63
50282;BME280;36176;51.506;10.272;2023-02-02T08:48:46;99823.84;;;3.20;87.15
50282;BME280;36176;51.506;10.272;2023-02-02T08:51:18;99833.41;;;3.24;87.73
50282;BME280;36176;51.506;10.272;2023-02-02T08:53:45;99832.59;;;3.16;89.00
50282;BME280;36176;51.506;10.272;2023-02-02T08:56:15;99839.66;;;3.14;90.67
50282;BME280;36176;51.506;10.272;2023-02-02T08:58:48;99841.44;;;3.07;91.80
50282;BME280;36176;51.506;10.272;2023-02-02T09:01:18;99847.69;;;2.97;92.89
50282;BME280;36176;51.506;10.272;2023-02-02T09:03:46;99842.50;;;2.92;93.82
50282;BME280;36176;51.506;10.272;2023-02-02T09:06:16;99847.78;;;2.86;94.52
50282;BME280;36176;51.506;10.272;2023-02-02T09:08:44;99851.31;;;2.81;94.11
50282;BME280;36176;51.506;10.272;2023-02-02T09:11:15;99855.63;;;2.85;94.45
50282;BME280;36176;51.506;10.272;2023-02-02T09:13:44;99851.31;;;2.81;95.44
50282;BME280;36176;51.506;10.272;2023-02-02T09:16:13;99853.13;;;2.75;95.31
50282;BME280;36176;51.506;10.272;2023-02-02T09:18:42;99857.53;;;2.69;96.26
50282;BME280;36176;51.506;10.272;2023-02-02T09:21:12;99861.00;;;2.68;96.43
50282;BME280;36176;51.506;10.272;2023-02-02T09:23:40;99869.69;;;2.73;95.91
50282;BME280;36176;51.506;10.272;2023-02-02T09:28:43;99875.00;;;2.67;96.59
50282;BME280;36176;51.506;10.272;2023-02-02T09:31:10;99872.41;;;2.64;96.43
50282;BME280;36176;51.506;10.272;2023-02-02T09:33:38;99880.28;;;2.58;96.72
50282;BME280;36176;51.506;10.272;2023-02-02T09:36:08;99881.19;;;2.57;96.67
50282;BME280;36176;51.506;10.272;2023-02-02T09:38:37;99887.28;;;2.59;97.33
50282;BME280;36176;51.506;10.272;2023-02-02T09:41:13;99880.25;;;2.64;96.87
50282;BME280;36176;51.506;10.272;2023-02-02T09:46:55;99888.16;;;2.59;97.27
50282;BME280;36176;51.506;10.272;2023-02-02T09:52:25;99888.94;;;2.66;96.87
50282;BME280;36176;51.506;10.272;2023-02-02T09:55:06;99881.97;;;2.63;97.41
50282;BME280;36176;51.506;10.272;2023-02-02T09:57:45;99882.00;;;2.62;96.70
50282;BME280;36176;51.506;10.272;2023-02-02T10:00:27;99883.72;;;2.66;97.23
50282;BME280;36176;51.506;10.272;2023-02-02T10:03:00;99884.56;;;2.71;97.01
50282;BME280;36176;51.506;10.272;2023-02-02T10:08:41;99903.75;;;2.70;97.61
50282;BME280;36176;51.506;10.272;2023-02-02T10:11:26;99901.13;;;2.71;97.49
50282;BME280;36176;51.506;10.272;2023-02-02T10:14:00;99909.75;;;2.81;96.85
50282;BME280;36176;51.506;10.272;2023-02-02T10:16:28;99899.25;;;2.84;97.25
50282;BME280;36176;51.506;10.272;2023-02-02T10:19:05;99906.22;;;2.90;97.30
50282;BME280;36176;51.506;10.272;2023-02-02T10:22:01;99900.13;;;2.86;97.20
50282;BME280;36176;51.506;10.272;2023-02-02T10:24:31;99913.16;;;2.92;96.89
50282;BME280;36176;51.506;10.272;2023-02-02T10:27:02;99911.38;;;2.94;96.72
50282;BME280;36176;51.506;10.272;2023-02-02T10:32:24;99924.34;;;3.08;96.88
50282;BME280;36176;51.506;10.272;2023-02-02T10:37:51;99920.78;;;3.15;95.85
50282;BME280;36176;51.506;10.272;2023-02-02T10:40:43;99922.56;;;3.12;95.95
50282;BME280;36176;51.506;10.272;2023-02-02T10:49:15;99936.66;;;3.00;96.43
50282;BME280;36176;51.506;10.272;2023-02-02T10:51:49;99937.41;;;3.11;97.00
50282;BME280;36176;51.506;10.272;2023-02-02T10:54:28;99937.31;;;3.22;96.81
50282;BME280;36176;51.506;10.272;2023-02-02T11:00:26;99939.03;;;3.26;95.71
50282;BME280;36176;51.506;10.272;2023-02-02T11:02:56;99939.84;;;3.30;95.63
50282;BME280;36176;51.506;10.272;2023-02-02T11:05:27;99953.78;;;3.32;95.51
50282;BME280;36176;51.506;10.272;2023-02-02T11:08:20;99950.31;;;3.31;95.67
50282;BME280;36176;51.506;10.272;2023-02-02T11:10:51;99946.75;;;3.37;95.41
50282;BME280;36176;51.506;10.272;2023-02-02T11:13:27;99950.25;;;3.36;95.67
50282;BME280;36176;51.506;10.272;2023-02-02T11:18:43;99953.66;;;3.46;95.05
50282;BME280;36176;51.506;10.272;2023-02-02T11:21:26;99949.41;;;3.35;94.59
50282;BME280;36176;51.506;10.272;2023-02-02T11:24:02;99943.25;;;3.38;94.04
50282;BME280;36176;51.506;10.272;2023-02-02T11:26:44;99951.22;;;3.27;94.47
50282;BME280;36176;51.506;10.272;2023-02-02T11:29:14;99956.44;;;3.27;94.87
50282;BME280;36176;51.506;10.272;2023-02-02T11:31:43;99966.97;;;3.24;94.51
50282;BME280;36176;51.506;10.272;2023-02-02T11:34:18;99972.13;;;3.33;95.02
50282;BME280;36176;51.506;10.272;2023-02-02T11:37:02;99974.66;;;3.41;94.43
50282;BME280;36176;51.506;10.272;2023-02-02T11:39:30;99975.56;;;3.37;94.11
50282;BME280;36176;51.506;10.272;2023-02-02T11:42:12;99977.38;;;3.33;93.63
50282;BME280;36176;51.506;10.272;2023-02-02T11:44:45;99981.03;;;3.14;93.10
50282;BME280;36176;51.506;10.272;2023-02-02T11:47:24;99981.00;;;3.17;93.78
50282;BME280;36176;51.506;10.272;2023-02-02T11:49:53;99980.06;;;3.26;94.62
50282;BME280;36176;51.506;10.272;2023-02-02T11:52:25;99980.06;;;3.24;94.20
50282;BME280;36176;51.506;10.272;2023-02-02T11:55:00;99977.41;;;3.27;94.74
50282;BME280;36176;51.506;10.272;2023-02-02T11:57:28;99973.84;;;3.36;94.17
50282;BME280;36176;51.506;10.272;2023-02-02T12:02:36;99972.00;;;3.46;93.94
50282;BME280;36176;51.506;10.272;2023-02-02T12:07:36;99971.75;;;3.67;93.43
50282;BME280;36176;51.506;10.272;2023-02-02T12:20:59;99962.09;;;3.74;92.75
50282;BME280;36176;51.506;10.272;2023-02-02T12:26:16;99959.47;;;3.72;92.29
50282;BME280;36176;51.506;10.272;2023-02-02T12:29:14;99953.47;;;3.64;92.15
50282;BME280;36176;51.506;10.272;2023-02-02T12:34:49;99961.28;;;3.66;92.27
50282;BME280;36176;51.506;10.272;2023-02-02T12:40:28;99974.28;;;3.75;91.30
50282;BME280;36176;51.506;10.272;2023-02-02T12:43:51;99969.88;;;3.80;91.23
50282;BME280;36176;51.506;10.272;2023-02-02T12:48:36;99978.47;;;3.93;90.73
50282;BME280;36176;51.506;10.272;2023-02-02T12:54:02;99979.22;;;4.02;90.63
50282;BME280;36176;51.506;10.272;2023-02-02T13:02:35;99983.56;;;4.02;89.58
50282;BME280;36176;51.506;10.272;2023-02-02T13:07:46;99987.22;;;3.90;90.66
50282;BME280;36176;51.506;10.272;2023-02-02T13:10:20;99987.16;;;3.95;90.43
50282;BME280;36176;51.506;10.272;2023-02-02T13:12:54;99987.91;;;4.08;90.06
50282;BME280;36176;51.506;10.272;2023-02-02T13:15:32;99985.34;;;4.03;89.94
50282;BME280;36176;51.506;10.272;2023-02-02T13:18:03;99985.28;;;4.04;89.98
50282;BME280;36176;51.506;10.272;2023-02-02T13:20:37;99994.06;;;4.05;89.92
50282;BME280;36176;51.506;10.272;2023-02-02T13:23:18;99996.69;;;4.03;89.89
50282;BME280;36176;51.506;10.272;2023-02-02T13:25:51;99993.09;;;4.11;89.60
50282;BME280;36176;51.506;10.272;2023-02-02T13:28:40;99995.78;;;4.04;90.88
50282;BME280;36176;51.506;10.272;2023-02-02T13:31:14;99997.44;;;4.12;89.93
50282;BME280;36176;51.506;10.272;2023-02-02T13:33:44;100000.94;;;4.12;90.64
50282;BME280;36176;51.506;10.272;2023-02-02T13:36:21;99994.81;;;4.15;89.93
50282;BME280;36176;51.506;10.272;2023-02-02T13:38:57;100000.00;;;4.16;89.99
50282;BME280;36176;51.506;10.272;2023-02-02T13:41:26;99992.25;;;4.09;89.55
50282;BME280;36176;51.506;10.272;2023-02-02T13:44:21;99994.06;;;4.05;89.34
50282;BME280;36176;51.506;10.272;2023-02-02T13:46:56;99998.34;;;4.09;89.87
50282;BME280;36176;51.506;10.272;2023-02-02T13:49:28;99994.75;;;4.19;89.77
50282;BME280;36176;51.506;10.272;2023-02-02T13:52:25;99995.59;;;4.21;89.99
50282;BME280;36176;51.506;10.272;2023-02-02T13:55:42;99999.09;;;4.20;90.08
50282;BME280;36176;51.506;10.272;2023-02-02T13:58:22;100004.34;;;4.19;89.53
50282;BME280;36176;51.506;10.272;2023-02-02T14:01:00;100006.97;;;4.20;89.36
50282;BME280;36176;51.506;10.272;2023-02-02T14:03:33;100008.66;;;4.24;88.96
50282;BME280;36176;51.506;10.272;2023-02-02T14:06:14;100012.19;;;4.20;89.66
50282;BME280;36176;51.506;10.272;2023-02-02T14:08:54;99999.84;;;4.30;89.79
50282;BME280;36176;51.506;10.272;2023-02-02T14:11:25;100008.63;;;4.28;89.14
50282;BME280;36176;51.506;10.272;2023-02-02T14:14:30;100015.53;;;4.35;88.55
50282;BME280;36176;51.506;10.272;2023-02-02T14:17:47;100016.44;;;4.32;88.84
50282;BME280;36176;51.506;10.272;2023-02-02T14:19:59;100020.94;;;4.21;88.48
50282;BME280;36176;51.506;10.272;2023-02-02T14:22:45;100023.50;;;4.27;88.61
50282;BME280;36176;51.506;10.272;2023-02-02T14:28:01;100030.72;;;4.08;88.40
50282;BME280;36176;51.506;10.272;2023-02-02T14:30:38;100044.00;;;3.93;88.67
50282;BME280;36176;51.506;10.272;2023-02-02T14:38:52;100053.66;;;3.88;89.30
50282;BME280;36176;51.506;10.272;2023-02-02T14:42:05;100055.50;;;3.79;89.28
50282;BME280;36176;51.506;10.272;2023-02-02T14:47:53;100067.84;;;3.68;90.25
50282;BME280;36176;51.506;10.272;2023-02-02T14:50:41;100073.97;;;3.66;90.79
50282;BME280;36176;51.506;10.272;2023-02-02T15:06:32;100102.75;;;3.70;90.42
50282;BME280;36176;51.506;10.272;2023-02-02T15:20:21;100114.22;;;3.58;90.79
50282;BME280;36176;51.506;10.272;2023-02-02T15:22:57;100120.34;;;3.56;90.40
50282;BME280;36176;51.506;10.272;2023-02-02T15:25:31;100124.75;;;3.55;90.96
50282;BME280;36176;51.506;10.272;2023-02-02T15:28:01;100126.53;;;3.50;90.34
50282;BME280;36176;51.506;10.272;2023-02-02T15:30:30;100134.47;;;3.43;91.35
50282;BME280;36176;51.506;10.272;2023-02-02T15:33:05;100132.72;;;3.38;91.44
50282;BME280;36176;51.506;10.272;2023-02-02T15:35:33;100136.22;;;3.37;91.06